Nearby METAR Reports

 

EGNR - Hawarden (aut), United Kingdom
Distance from station: ESE 33mi, 53km
Updated: 28/02/2020 09:20
Light rain, Mostly cloudy
Light rain, Mostly cloudy
 Wind from SSE
Wind: SSE 18 mph , 30 km/h
Temperature: 2°C
Wind Chill: -3°C
Dew Point: 1°C
Humidity: 93%
Barometer: 1002 hPa
Summary: Light rain
Clouds: Mostly cloudy
Visibility: 6 miles , 10 km
Cloud details: Mostly cloudy 213 m
2020/02/28 09:20 EGNR 280920Z 15016KT 9999 5000S -RA BKN007 02/01 Q1002
EGOV - Valley Raf, United Kingdom
Distance from station: W 33mi, 53km
Updated: 28/02/2020 09:20
Overcast
Overcast
 Wind from SSE
Wind: SSE 23 mph , 37 km/h
Temperature: 5°C
Wind Chill: -1°C
Dew Point: 4°C
Humidity: 93%
Barometer: 997 hPa
Clouds: Overcast
Visibility: 6 miles , 10 km
Cloud details: Few Clouds 457 m
Mostly cloudy 610 m
Overcast 671 m
2020/02/28 09:20 EGOV 280920Z 15020KT 9999 FEW015 BKN020 OVC022 05/04 Q0997 BECMG BKN010 RMK WHT BECMG GRN
 
EGGP - Liverpool Airpor, United Kingdom
Distance from station: E 37mi, 59km
Updated: 28/02/2020 09:20
Light rain, Mostly cloudy
Light rain, Mostly cloudy
 Wind from SE
Wind: SE 16 mph , 26 km/h
Temperature: 3°C
Wind Chill: -2°C
Dew Point: 2°C
Humidity: 93%
Barometer: 1002 hPa
Summary: Light rain
Clouds: Mostly cloudy
Visibility: 6 miles , 10 km
Cloud details: Mostly cloudy 305 m
2020/02/28 09:20 EGGP 280920Z 13014KT 9999 -RA BKN010 03/02 Q1002
EGNH - Blackpool Airpor, United Kingdom
Distance from station: NE 44mi, 72km
Updated: 28/02/2020 09:20
Light rain, Mostly cloudy
Light rain, Mostly cloudy
 Wind from SE
Wind: SE 22 mph , 35 km/h
Temperature: 3°C
Wind Chill: -3°C
Dew Point: 2°C
Humidity: 93%
Barometer: 1001 hPa
Summary: Light rain
Clouds: Mostly cloudy
Visibility: 6 miles , 9 km
Cloud details: Partly cloudy 244 m
Mostly cloudy 762 m
2020/02/28 09:20 EGNH 280920Z 14019KT 9000 -RA SCT008 BKN025 03/02 Q1001
 
EGNO - Wharton, United Kingdom
Distance from station: NE 47mi, 76km
Updated: 28/02/2020 09:20
Light rain, Mostly cloudy
Light rain, Mostly cloudy
 Wind from SE
Wind: SE 15 mph , 24 km/h
Temperature: 2°C
Wind Chill: -3°C
Dew Point: 2°C
Humidity: 100%
Barometer: 1001 hPa
Summary: Light rain
Clouds: Mostly cloudy
Visibility: 4 miles , 6 km
Cloud details: Mostly cloudy 244 m
2020/02/28 09:20 EGNO 280920Z 13013KT 6000 -RA BKN008 02/02 Q1001
EGOS - Shawbury Raf, United Kingdom
Distance from station: SE 56mi, 89km
Updated: 28/02/2020 09:20
Light rain, Overcast
Light rain, Overcast
 Wind from SE
Wind: SE 15 mph , 24 km/h
Temperature: 3°C
Wind Chill: -2°C
Dew Point: 2°C
Humidity: 93%
Barometer: 1002 hPa
Summary: Light rain
Clouds: Overcast
Visibility: 6 miles , 10 km
Cloud details: Mostly cloudy 305 m
Overcast 549 m
2020/02/28 09:20 EGOS 280920Z 13013KT 9999 -RA BKN010 OVC018 03/02 Q1002 TEMPO 7000 RA RMK GRN TEMPO GRN
 
EGCC - Manchester Intl, United Kingdom
Distance from station: E 61mi, 98km
Updated: 28/02/2020 09:20
Light rain, Snow, Mostly cloudy
Light rain, Snow, Mostly cloudy
 Wind from SE
Wind: SE 8 mph , 13 km/h
Temperature: 2°C
Wind Chill: -1°C
Dew Point: 1°C
Humidity: 93%
Barometer: 1003 hPa
Summary: Light rain, Snow
Clouds: Mostly cloudy
Visibility: 5 miles , 8 km
Cloud details: Few Clouds 213 m
Partly cloudy 396 m
Mostly cloudy 1097 m
2020/02/28 09:20 EGCC 280920Z 14007KT 100V190 8000 -RASN FEW007 SCT013 BKN036 02/01 Q1003
EGNS - Isle Of Man/Rona, United Kingdom
Distance from station: NW 66mi, 107km
Updated: 28/02/2020 09:20
Light rain, Drizzle, Overcast
Light rain, Drizzle, Overcast
 Wind from SE
Wind: SE 29 mph , 46 km/h
Temperature: 4°C
Wind Chill: -3°C
Dew Point: 4°C
Humidity: 100%
Barometer: 997 hPa
Summary: Light rain, Drizzle
Clouds: Overcast
Visibility: 3 miles , 5 km
Cloud details: Partly cloudy 183 m
Mostly cloudy 244 m
Overcast 457 m
2020/02/28 09:20 EGNS 280920Z 13025KT 5000 -RADZ SCT006 BKN008 OVC015 04/04 Q0997 NOSIG
 
EGNM - Leeds And Bradfo, United Kingdom
Distance from station: ENE 95mi, 153km
Updated: 28/02/2020 09:20
Few Clouds
Few Clouds
 Wind from SSE
Wind: SSE 10 mph , 17 km/h
Temperature: 2°C
Wind Chill: -2°C
Dew Point: 0°C
Humidity: 87%
Barometer: 1004 hPa
Clouds: Few Clouds
Visibility: 6 miles , 10 km
Cloud details: Few Clouds 427 m
2020/02/28 09:20 EGNM 280920Z 15009KT 9999 FEW014 02/00 Q1004
EGBB - Birmingham Airpo, United Kingdom
Distance from station: ESE 100mi, 161km
Updated: 28/02/2020 09:20
Light rain, Overcast
Light rain, Overcast
 Wind from SE
Wind: SE 14 mph , 22 km/h
Temperature: 3°C
Wind Chill: -2°C
Dew Point: 2°C
Humidity: 93%
Barometer: 1005 hPa
Summary: Light rain
Clouds: Overcast
Visibility: 4 miles , 7 km
Cloud details: Mostly cloudy 213 m
Overcast 305 m
2020/02/28 09:20 EGBB 280920Z 14012KT 7000 -RA BKN007 OVC010 03/02 Q1005